METAR Data
IDs: Format: Raw Decoded Include TAF

Data at: 1124 UTC 25 Oct 2020

KDHN 251120Z AUTO 00000KT 2SM BR OVC002 19/19 A2996 RMK AO2 T01940189